메인 페이지
METAR-TAF:

METAR-TAF

공항 :

코토팍시 국제공항

Latacunga, 에콰도르

위도: 00-55S, 경도: 078-37W, 고도: 2785m

현재 날씨관측

예보는 21분 전, 00:00시(UTC)에 발표되었습니다.
3kt
온도 10°C
습도 87%
기압 1026 hPa
시정 10km 이상
고도 3000ft 상공 구름 조금

METAR: SELT 290000Z 19003KT 9999 FEW030 10/08 Q1026

시각: 19:21 (00:21 UTC)

예보

예보는 2 시간 11분 전, 22:10시(UTC)에 발표되었습니다.
예보 대상 시간: 29일 00시부터 29일 24시까지 (UTC)
남남동6kt
시정 10km 이상
고도 3000ft 상공 구름 보통
고도 10000ft 상공 구름 많음
전환 중
29일 04시부터 29일 06시까지 (UTC)
고도 1000ft 상공 구름 조금
고도 2600ft 상공 구름 많음
전환 중
29일 12시부터 29일 14시까지 (UTC)
고도 2000ft 상공 구름 보통
고도 10000ft 상공 구름 보통
전환 중
29일 17시부터 29일 19시까지 (UTC)
남남동12kt
고도 4000ft 상공 구름 보통

TAF: SELT 282210Z 2900/2924 16006KT 9999 SCT030 BKN100 BECMG 2904/2906 FEW010 BKN026 BECMG 2912/2914 SCT020 SCT100 BECMG 2917/2919 15012KT SCT040 TX19/2919Z TN08/2911Z

4,000개 이상의 공항 관측 자료 및 예보 (METAR 및 TAF 보고).

지도상에서 검색 가능한 기상관측소가 노란 점과 빨간 점으로 표시되어 있습니다.

기상관측소 명을 보려면 표시 위로 마우스를 이동하세요.

날씨 관측과 예보를 보려면 클릭하세요.

지도 변경 : 확대하려면 엑스 표시가 있는 녹색 버튼, 축소하려면 빼기 표시가 있는 녹색 버튼, 다음 페이지의 지도를 보려면 녹색 화살표를 클릭하세요.


METAR-TAF: